Etusivu
METAR-TAF:

METAR-TAF

Lentoasemat :

Heliport

Værøy, Norja

Leveyspiiri: 67-39-16N, Pituuspiiri: 12-43-37E, korkeus merenpinnasta: 5 m

Tämänhetkinen sää

Tämä raportti tehtiin 6 tuntia ja 14 minuuttia sitten, kello 13.50 UTC
Tuuli 11 kn pohjoisesta
Lämpötila 9°C
Kosteus 71%
Ilmanpaine 1022 hPa
Näkyvyys 10 km tai enemmän
ei pilviä alle 1500 m:ssä eikä cumulonimbus-pilviä

METAR: ENVR 241350Z 01011KT CAVOK 09/04 Q1022

Aika: 22:04 (20:04 UTC)


TAF: puuttuu

Säähavainnot ja -ennusteet yli 4000 lentoasemalta (METAR- ja TAF-raportit).

Käytössä olevat sääasemat on merkitty karttaan keltaisilla ja punaisilla pisteillä.

Aseta hiiri pisteen päälle nähdäksesi sääaseman nimen.

Klikkaa sitten nähdäksesi säähavainnot ja -ennusteet.

Kartan vaihtaminen: klikkaa mustalla rastilla varustettuja vihreitä pisteitä, niin voit zoomata sisään; viivalla varustettua vihreää pistettä, niin voit zoomata ulos tai vihreitä nuolia, niin pääset viereisille kartoille.


METAR-TAF: